createdAt,value
2023-05-09T00:00:05.357Z,2.98
2023-05-09T00:05:30.720Z,2.87
2023-05-09T00:10:36.329Z,2.80
2023-05-09T00:15:42.031Z,2.83
2023-05-09T00:20:47.627Z,2.87
2023-05-09T00:25:53.122Z,2.77
2023-05-09T00:30:58.513Z,2.69
2023-05-09T00:36:04.283Z,2.56
2023-05-09T00:41:09.850Z,2.44
2023-05-09T00:46:15.329Z,2.42
2023-05-09T00:51:21.889Z,2.44
2023-05-09T00:56:27.486Z,2.42
2023-05-09T01:01:32.925Z,2.42
2023-05-09T01:06:48.785Z,2.44
2023-05-09T01:12:11.979Z,2.38
2023-05-09T01:17:27.771Z,2.26
2023-05-09T01:22:36.439Z,2.09
2023-05-09T01:27:53.619Z,1.96
2023-05-09T01:33:05.250Z,1.95
2023-05-09T01:38:16.887Z,1.93
2023-05-09T01:43:25.834Z,1.94
2023-05-09T01:48:34.777Z,1.87
2023-05-09T01:53:42.385Z,1.72
2023-05-09T01:58:50.084Z,1.68
2023-05-09T02:03:56.167Z,1.69
2023-05-09T02:09:03.061Z,1.66
2023-05-09T02:14:08.706Z,1.60
2023-05-09T02:19:14.109Z,1.59
2023-05-09T02:24:19.648Z,1.53
2023-05-09T02:29:30.964Z,1.50
2023-05-09T02:34:37.841Z,1.52
2023-05-09T02:39:44.147Z,1.48
2023-05-09T02:44:49.582Z,1.36
2023-05-09T02:49:55.338Z,1.38
2023-05-09T02:55:00.861Z,1.42
2023-05-09T03:00:11.645Z,1.39
2023-05-09T03:05:18.323Z,1.34
2023-05-09T03:10:23.838Z,1.34
2023-05-09T03:15:29.559Z,1.34
2023-05-09T03:20:36.491Z,1.35
2023-05-09T03:25:42.411Z,1.40
2023-05-09T03:30:48.096Z,1.55
2023-05-09T03:35:54.662Z,1.69
2023-05-09T03:41:00.466Z,1.79
2023-05-09T03:46:06.529Z,1.92
2023-05-09T03:51:13.041Z,2.06
2023-05-09T03:56:19.979Z,2.20
2023-05-09T04:01:28.443Z,2.33
2023-05-09T04:06:35.811Z,2.55
2023-05-09T04:11:41.721Z,2.96
2023-05-09T04:16:49.484Z,3.85
2023-05-09T04:21:55.040Z,5.76
2023-05-09T04:27:01.135Z,8.67
2023-05-09T04:32:06.958Z,12.12
2023-05-09T04:37:13.295Z,15.08
2023-05-09T04:42:21.022Z,17.67
2023-05-09T04:47:26.634Z,19.39
2023-05-09T04:52:32.108Z,20.64
2023-05-09T04:57:37.486Z,21.46
2023-05-09T05:02:43.054Z,22.29
2023-05-09T05:07:48.672Z,23.31
2023-05-09T05:12:56.499Z,24.20
2023-05-09T05:18:02.280Z,24.91
2023-05-09T05:23:13.420Z,25.73
2023-05-09T05:28:18.885Z,26.48
2023-05-09T05:33:30.732Z,26.86
2023-05-09T05:38:37.676Z,27.77
2023-05-09T05:43:43.345Z,28.32
2023-05-09T05:48:49.179Z,28.92
2023-05-09T05:54:06.329Z,29.64
2023-05-09T05:59:13.569Z,30.43
2023-05-09T06:04:19.799Z,30.97
2023-05-09T06:09:26.176Z,31.27
2023-05-09T06:14:31.618Z,32.03
2023-05-09T06:19:37.786Z,32.19
2023-05-09T06:24:43.432Z,32.58
2023-05-09T06:29:49.100Z,33.15
2023-05-09T06:34:54.659Z,34.06
2023-05-09T06:40:00.299Z,34.31
2023-05-09T06:45:07.048Z,34.39
2023-05-09T06:50:11.379Z,34.80
2023-05-09T06:55:17.304Z,35.11
2023-05-09T07:00:23.912Z,34.61
2023-05-09T07:05:29.435Z,34.85
2023-05-09T07:10:35.286Z,34.57
2023-05-09T07:15:42.714Z,34.03
2023-05-09T07:20:48.868Z,33.47
2023-05-09T07:25:58.851Z,33.27
2023-05-09T07:31:05.974Z,33.13
2023-05-09T07:36:13.642Z,33.55
2023-05-09T07:41:18.920Z,33.60
2023-05-09T07:46:24.326Z,33.88
2023-05-09T07:51:29.850Z,34.27
2023-05-09T07:56:35.232Z,33.94
2023-05-09T08:01:40.762Z,33.38
2023-05-09T08:06:46.360Z,32.98
2023-05-09T08:11:52.185Z,33.17
2023-05-09T08:16:57.889Z,33.24
2023-05-09T08:22:03.375Z,33.60
2023-05-09T08:27:08.685Z,33.60
2023-05-09T08:32:14.404Z,33.09
2023-05-09T08:37:19.781Z,32.55
2023-05-09T08:42:27.153Z,32.19
2023-05-09T08:47:36.998Z,31.85
2023-05-09T08:52:42.820Z,31.55
2023-05-09T08:57:48.956Z,31.73
2023-05-09T09:02:56.565Z,30.78
2023-05-09T09:08:03.876Z,30.46
2023-05-09T09:13:10.071Z,30.12
2023-05-09T09:18:20.990Z,29.47
2023-05-09T09:23:28.934Z,30.04
2023-05-09T09:28:35.017Z,30.08
2023-05-09T09:33:40.479Z,30.24
2023-05-09T09:38:46.053Z,30.46
2023-05-09T09:43:51.602Z,30.68
2023-05-09T09:48:59.097Z,30.03
2023-05-09T09:54:06.710Z,29.90
2023-05-09T09:59:14.275Z,29.80
2023-05-09T10:04:19.798Z,29.76
2023-05-09T10:09:26.793Z,29.35
2023-05-09T10:14:35.289Z,29.02
2023-05-09T10:19:45.907Z,28.76
2023-05-09T10:25:03.767Z,28.61
2023-05-09T10:30:13.738Z,28.09
2023-05-09T10:35:20.862Z,27.44
2023-05-09T10:40:27.859Z,27.50
2023-05-09T10:45:34.115Z,27.39
2023-05-09T10:50:40.673Z,27.68
2023-05-09T10:55:56.428Z,27.74
2023-05-09T11:01:03.709Z,27.36
2023-05-09T11:06:09.361Z,26.90
2023-05-09T11:11:27.047Z,26.64
2023-05-09T11:16:52.414Z,26.74
2023-05-09T11:22:13.639Z,26.22
2023-05-09T11:27:22.792Z,25.65
2023-05-09T11:32:44.477Z,25.14
2023-05-09T11:37:58.497Z,24.43
2023-05-09T11:43:22.794Z,24.16
2023-05-09T11:48:40.372Z,24.10
2023-05-09T11:53:49.710Z,23.83
2023-05-09T11:58:55.407Z,23.72
2023-05-09T12:04:02.220Z,23.40
2023-05-09T12:09:09.152Z,22.89
2023-05-09T12:14:29.097Z,22.61
2023-05-09T12:19:34.596Z,22.31
2023-05-09T12:24:40.007Z,21.93
2023-05-09T12:29:47.593Z,21.74
2023-05-09T12:34:54.235Z,21.84
2023-05-09T12:40:11.252Z,21.78
2023-05-09T12:45:17.316Z,21.30
2023-05-09T12:50:31.090Z,21.23
2023-05-09T12:55:41.934Z,21.20
2023-05-09T13:00:47.571Z,20.92
2023-05-09T13:06:05.367Z,20.56
2023-05-09T13:11:16.754Z,20.29
2023-05-09T13:16:22.866Z,20.02
2023-05-09T13:21:31.565Z,19.99
2023-05-09T13:26:36.987Z,19.91
2023-05-09T13:31:42.470Z,19.79
2023-05-09T13:36:47.836Z,19.66
2023-05-09T13:41:53.363Z,19.71
2023-05-09T13:47:00.340Z,19.57
2023-05-09T13:52:06.757Z,19.19
2023-05-09T13:57:12.634Z,19.01
2023-05-09T14:02:18.825Z,19.23
2023-05-09T14:07:24.490Z,19.09
2023-05-09T14:12:30.282Z,18.85
2023-05-09T14:17:35.654Z,18.71
2023-05-09T14:22:41.673Z,18.60
2023-05-09T14:27:47.577Z,18.32
2023-05-09T14:32:52.914Z,18.16
2023-05-09T14:37:58.503Z,18.06
2023-05-09T14:43:03.828Z,17.86
2023-05-09T14:48:10.474Z,17.72
2023-05-09T14:53:17.055Z,17.65
2023-05-09T14:58:23.794Z,17.63
2023-05-09T15:03:29.120Z,17.46
2023-05-09T15:08:35.639Z,17.42
2023-05-09T15:13:41.042Z,17.47
2023-05-09T15:18:47.641Z,17.42
2023-05-09T15:23:53.266Z,17.28
2023-05-09T15:28:58.948Z,17.06
2023-05-09T15:34:06.712Z,16.91
2023-05-09T15:39:12.545Z,16.85
2023-05-09T15:44:18.101Z,16.74
2023-05-09T15:49:23.438Z,16.60
2023-05-09T15:54:31.841Z,16.53
2023-05-09T15:59:37.234Z,16.44
2023-05-09T16:04:44.069Z,16.35
2023-05-09T16:09:50.044Z,16.26
2023-05-09T16:14:55.464Z,16.17
2023-05-09T16:20:04.132Z,16.10
2023-05-09T16:25:14.654Z,16.01
2023-05-09T16:30:20.156Z,15.90
2023-05-09T16:35:25.962Z,15.83
2023-05-09T16:40:32.137Z,15.79
2023-05-09T16:45:37.646Z,15.70
2023-05-09T16:50:44.280Z,15.62
2023-05-09T16:55:49.815Z,15.55
2023-05-09T17:00:55.428Z,15.45
2023-05-09T17:06:01.170Z,15.36
2023-05-09T17:11:06.832Z,15.27
2023-05-09T17:16:12.629Z,15.18
2023-05-09T17:21:20.206Z,15.08
2023-05-09T17:26:26.023Z,14.97
2023-05-09T17:31:32.160Z,14.87
2023-05-09T17:36:40.074Z,14.74
2023-05-09T17:41:46.376Z,14.61
2023-05-09T17:46:51.834Z,14.46
2023-05-09T17:51:57.392Z,14.31
2023-05-09T17:57:03.233Z,14.14
2023-05-09T18:02:08.905Z,13.99
2023-05-09T18:07:14.531Z,13.83
2023-05-09T18:12:20.431Z,13.63
2023-05-09T18:17:25.891Z,13.44
2023-05-09T18:22:33.179Z,13.27
2023-05-09T18:27:39.283Z,13.10
2023-05-09T18:32:44.747Z,12.93
2023-05-09T18:37:50.647Z,12.74
2023-05-09T18:42:56.283Z,12.51
2023-05-09T18:48:02.809Z,12.31
2023-05-09T18:53:08.265Z,12.13
2023-05-09T18:58:13.769Z,11.95
2023-05-09T19:03:19.187Z,11.74
2023-05-09T19:08:26.288Z,11.52
2023-05-09T19:13:37.033Z,11.32
2023-05-09T19:18:42.595Z,11.15
2023-05-09T19:23:49.217Z,11.02
2023-05-09T19:28:55.225Z,10.89
2023-05-09T19:34:01.235Z,10.74
2023-05-09T19:39:09.267Z,10.62
2023-05-09T19:44:15.553Z,10.51
2023-05-09T19:49:20.920Z,10.41
2023-05-09T19:54:27.251Z,10.29
2023-05-09T19:59:32.619Z,10.16
2023-05-09T20:04:39.070Z,10.00
2023-05-09T20:09:44.475Z,9.82
2023-05-09T20:14:49.872Z,9.64
2023-05-09T20:19:57.707Z,9.53
2023-05-09T20:25:11.342Z,9.39
2023-05-09T20:30:34.460Z,9.25
2023-05-09T20:36:06.621Z,8.93
2023-05-09T20:41:12.696Z,8.80
2023-05-09T20:47:24.376Z,8.75
2023-05-09T20:53:17.439Z,8.67
2023-05-09T20:58:28.178Z,8.53
2023-05-09T21:03:37.589Z,8.48
2023-05-09T21:08:44.365Z,8.41
2023-05-09T21:13:49.903Z,8.20
2023-05-09T21:18:55.432Z,8.09
2023-05-09T21:24:03.308Z,8.06
2023-05-09T21:29:09.288Z,7.99
2023-05-09T21:34:14.627Z,7.94
2023-05-09T21:39:19.987Z,7.70
2023-05-09T21:44:25.574Z,7.53
2023-05-09T21:49:31.341Z,7.31
2023-05-09T21:54:36.802Z,7.15
2023-05-09T21:59:42.572Z,7.06
2023-05-09T22:04:48.098Z,6.98
2023-05-09T22:09:54.181Z,6.96
2023-05-09T22:14:59.795Z,6.87
2023-05-09T22:20:06.699Z,6.89
2023-05-09T22:25:12.249Z,6.85
2023-05-09T22:30:17.926Z,6.67
2023-05-09T22:35:23.588Z,6.53
2023-05-09T22:40:29.264Z,6.47
2023-05-09T22:45:34.774Z,6.39
2023-05-09T22:50:40.586Z,6.20
2023-05-09T22:55:46.175Z,6.06
2023-05-09T23:00:51.661Z,5.99
2023-05-09T23:05:57.262Z,5.86
2023-05-09T23:11:02.973Z,5.71
2023-05-09T23:16:08.907Z,5.57
2023-05-09T23:21:14.605Z,5.42
2023-05-09T23:26:20.836Z,5.32
2023-05-09T23:31:26.485Z,5.24
2023-05-09T23:36:32.849Z,5.10
2023-05-09T23:41:38.377Z,4.97
2023-05-09T23:46:43.907Z,4.88
2023-05-09T23:51:49.298Z,4.79
2023-05-09T23:56:57.228Z,4.67
